createdAt,value
2023-02-23T00:01:53.416Z,-16.07
2023-02-23T00:07:15.588Z,-16.23
2023-02-23T00:12:37.471Z,-16.35
2023-02-23T00:17:59.553Z,-16.40
2023-02-23T00:23:21.813Z,-16.49
2023-02-23T00:28:44.317Z,-16.58
2023-02-23T00:34:07.992Z,-16.58
2023-02-23T00:39:30.137Z,-16.74
2023-02-23T00:44:52.532Z,-16.67
2023-02-23T00:50:18.612Z,-16.61
2023-02-23T00:55:45.366Z,-16.82
2023-02-23T01:01:09.736Z,-16.67
2023-02-23T01:06:33.309Z,-16.72
2023-02-23T01:11:57.801Z,-16.85
2023-02-23T01:17:22.900Z,-16.75
2023-02-23T01:22:50.601Z,-16.68
2023-02-23T01:28:13.442Z,-16.83
2023-02-23T01:33:35.838Z,-16.70
2023-02-23T01:39:00.653Z,-16.77
2023-02-23T01:44:22.766Z,-16.78
2023-02-23T01:49:44.464Z,-16.77
2023-02-23T01:55:06.979Z,-16.80
2023-02-23T02:00:29.603Z,-16.80
2023-02-23T02:05:52.657Z,-17.04
2023-02-23T02:11:36.864Z,-16.95
2023-02-23T02:17:26.134Z,-17.09
2023-02-23T02:23:08.861Z,-16.99
2023-02-23T02:29:05.312Z,-17.06
2023-02-23T02:34:56.072Z,-17.03
2023-02-23T02:40:56.185Z,-17.13
2023-02-23T02:46:30.033Z,-17.08
2023-02-23T02:52:12.617Z,-16.88
2023-02-23T02:57:35.748Z,-16.98
2023-02-23T03:03:16.856Z,-17.00
2023-02-23T03:09:06.912Z,-16.93
2023-02-23T03:15:26.515Z,-16.90
2023-02-23T03:21:13.237Z,-16.77
2023-02-23T03:27:02.977Z,-16.90
2023-02-23T03:33:08.949Z,-16.64
2023-02-23T03:38:58.699Z,-16.62
2023-02-23T03:44:49.155Z,-16.66
2023-02-23T03:50:37.502Z,-16.65
2023-02-23T03:56:19.748Z,-16.78
2023-02-23T04:02:00.689Z,-16.90
2023-02-23T04:07:41.867Z,-17.00
2023-02-23T04:13:17.649Z,-17.03
2023-02-23T04:18:40.592Z,-17.15
2023-02-23T04:24:02.613Z,-17.30
2023-02-23T04:29:24.727Z,-17.27
2023-02-23T04:34:47.139Z,-17.25
2023-02-23T04:40:10.522Z,-17.33
2023-02-23T04:45:33.319Z,-17.17
2023-02-23T04:50:56.066Z,-17.20
2023-02-23T04:56:18.285Z,-17.03
2023-02-23T05:01:40.519Z,-16.82
2023-02-23T05:07:04.205Z,-16.48
2023-02-23T05:12:29.250Z,-16.36
2023-02-23T05:17:51.782Z,-16.27
2023-02-23T05:23:14.819Z,-16.09
2023-02-23T05:28:39.652Z,-15.81
2023-02-23T05:34:05.546Z,-15.56
2023-02-23T05:39:34.005Z,-15.47
2023-02-23T05:44:56.104Z,-15.07
2023-02-23T05:50:18.653Z,-14.93
2023-02-23T05:55:40.580Z,-14.86
2023-02-23T06:01:02.250Z,-14.67
2023-02-23T06:06:25.990Z,-14.85
2023-02-23T06:11:47.633Z,-14.57
2023-02-23T06:17:09.627Z,-14.39
2023-02-23T06:22:31.848Z,-13.94
2023-02-23T06:27:56.748Z,-13.79
2023-02-23T06:33:19.049Z,-13.55
2023-02-23T06:38:41.298Z,-13.52
2023-02-23T06:44:03.102Z,-13.46
2023-02-23T06:49:28.117Z,-13.19
2023-02-23T06:54:50.611Z,-12.89
2023-02-23T07:00:15.718Z,-12.80
2023-02-23T07:05:38.013Z,-12.73
2023-02-23T07:11:11.688Z,-12.58
2023-02-23T07:16:37.329Z,-12.44
2023-02-23T07:21:59.717Z,-12.38
2023-02-23T07:27:22.104Z,-12.25
2023-02-23T07:32:44.584Z,-11.75
2023-02-23T07:38:07.928Z,-11.67
2023-02-23T07:43:29.961Z,-11.32
2023-02-23T07:48:51.929Z,-11.47
2023-02-23T07:54:14.253Z,-11.21
2023-02-23T07:59:37.569Z,-10.95
2023-02-23T08:05:00.147Z,-10.67
2023-02-23T08:10:22.856Z,-10.50
2023-02-23T08:15:45.092Z,-10.30
2023-02-23T08:21:07.017Z,-10.36
2023-02-23T08:26:29.390Z,-10.26
2023-02-23T08:31:52.214Z,-10.17
2023-02-23T08:37:14.275Z,-9.91
2023-02-23T08:42:37.038Z,-9.85
2023-02-23T08:47:58.712Z,-9.85
2023-02-23T08:53:20.674Z,-9.61
2023-02-23T08:58:43.524Z,-9.35
2023-02-23T09:04:06.430Z,-9.27
2023-02-23T09:09:28.346Z,-9.15
2023-02-23T09:14:51.698Z,-9.06
2023-02-23T09:20:16.458Z,-8.88
2023-02-23T09:25:45.714Z,-8.75
2023-02-23T09:31:15.890Z,-8.77
2023-02-23T09:37:03.501Z,-8.67
2023-02-23T09:42:31.805Z,-8.74
2023-02-23T09:48:21.765Z,-8.68
2023-02-23T09:53:51.449Z,-8.76
2023-02-23T09:59:17.772Z,-8.59
2023-02-23T10:04:55.608Z,-8.58
2023-02-23T10:10:37.035Z,-8.48
2023-02-23T10:16:24.790Z,-8.62
2023-02-23T10:21:57.735Z,-8.50
2023-02-23T10:27:22.492Z,-8.48
2023-02-23T10:33:12.663Z,-8.29
2023-02-23T10:38:41.276Z,-8.24
2023-02-23T10:44:16.917Z,-8.30
2023-02-23T10:49:59.252Z,-8.27
2023-02-23T10:55:30.226Z,-8.13
2023-02-23T11:01:01.013Z,-8.17
2023-02-23T11:06:36.221Z,-8.16
2023-02-23T11:12:04.413Z,-8.15
2023-02-23T11:17:35.688Z,-8.05
2023-02-23T11:23:03.605Z,-7.99
2023-02-23T11:28:37.520Z,-7.91
2023-02-23T11:34:00.111Z,-7.89
2023-02-23T11:39:24.089Z,-7.96
2023-02-23T11:45:34.050Z,-7.93
2023-02-23T11:50:57.826Z,-7.96
2023-02-23T11:56:23.206Z,-7.91
2023-02-23T12:01:57.133Z,-7.95
2023-02-23T12:07:24.778Z,-7.95
2023-02-23T12:13:21.901Z,-7.79
2023-02-23T14:41:15.828Z,-9.96
2023-02-23T14:46:39.122Z,-10.24
2023-02-23T14:52:21.959Z,-10.22
2023-02-23T14:57:45.074Z,-10.10
2023-02-23T15:03:09.889Z,-10.23
2023-02-23T15:08:38.892Z,-10.43
2023-02-23T15:14:01.495Z,-10.52
2023-02-23T15:19:29.272Z,-10.66
2023-02-23T15:24:51.747Z,-10.55
2023-02-23T15:30:20.364Z,-10.59
2023-02-23T15:36:01.153Z,-10.81
2023-02-23T15:41:37.678Z,-10.95
2023-02-23T15:47:09.961Z,-10.93
2023-02-23T15:52:36.205Z,-11.11
2023-02-23T15:58:04.738Z,-11.21
2023-02-23T16:03:33.747Z,-11.30
2023-02-23T16:09:00.792Z,-11.23
2023-02-23T16:14:27.897Z,-11.60
2023-02-23T16:20:11.350Z,-11.61
2023-02-23T16:25:40.360Z,-11.83
2023-02-23T16:31:09.722Z,-11.75
2023-02-23T16:36:41.834Z,-12.09
2023-02-23T16:42:07.960Z,-12.00
2023-02-23T16:47:39.779Z,-12.19
2023-02-23T16:53:10.340Z,-12.05
2023-02-23T16:58:39.237Z,-12.05
2023-02-23T17:04:04.993Z,-12.13
2023-02-23T17:09:29.402Z,-12.25
2023-02-23T17:14:53.973Z,-12.32
2023-02-23T17:20:22.334Z,-12.23
2023-02-23T17:25:45.330Z,-12.34
2023-02-23T17:31:11.332Z,-12.29
2023-02-23T17:36:36.192Z,-12.22
2023-02-23T17:41:58.441Z,-12.12
2023-02-23T17:47:20.156Z,-12.23
2023-02-23T17:52:42.306Z,-12.26
2023-02-23T17:58:04.467Z,-12.22
2023-02-23T18:03:32.426Z,-12.17
2023-02-23T18:08:54.056Z,-12.30
2023-02-23T18:14:17.245Z,-12.38
2023-02-23T18:19:39.340Z,-12.74
2023-02-23T18:25:01.657Z,-12.62
2023-02-23T18:30:27.697Z,-12.54
2023-02-23T18:35:49.916Z,-12.66
2023-02-23T18:41:15.612Z,-12.94
2023-02-23T18:46:38.608Z,-12.93
2023-02-23T18:52:09.920Z,-13.15
2023-02-23T18:57:34.401Z,-13.25
2023-02-23T19:02:56.677Z,-13.25
2023-02-23T19:08:19.752Z,-13.16
2023-02-23T19:13:41.852Z,-13.23
2023-02-23T19:19:06.393Z,-13.58
2023-02-23T19:24:31.523Z,-13.70
2023-02-23T19:29:53.764Z,-13.65
2023-02-23T19:35:16.421Z,-13.60
2023-02-23T19:40:44.742Z,-13.61
2023-02-23T19:46:08.997Z,-13.72
2023-02-23T19:51:33.541Z,-13.66
2023-02-23T19:56:56.880Z,-13.63
2023-02-23T20:02:20.027Z,-13.70
2023-02-23T20:07:43.001Z,-13.66
2023-02-23T20:13:04.960Z,-13.49
2023-02-23T20:18:28.906Z,-13.40
2023-02-23T20:23:51.172Z,-13.61
2023-02-23T20:29:18.760Z,-13.24
2023-02-23T20:34:40.841Z,-13.35
2023-02-23T20:40:06.749Z,-13.24
2023-02-23T20:45:31.631Z,-13.07
2023-02-23T20:50:58.959Z,-13.13
2023-02-23T20:56:22.455Z,-13.06
2023-02-23T21:01:45.441Z,-12.86
2023-02-23T21:07:07.558Z,-13.00
2023-02-23T21:12:31.957Z,-12.78
2023-02-23T21:17:55.509Z,-12.86
2023-02-23T21:23:20.797Z,-12.86
2023-02-23T21:28:44.848Z,-12.83
2023-02-23T21:34:07.691Z,-12.84
2023-02-23T21:39:30.556Z,-12.84
2023-02-23T21:44:55.218Z,-12.91
2023-02-23T21:50:19.194Z,-13.21
2023-02-23T21:55:41.131Z,-13.22
2023-02-23T22:01:14.220Z,-13.22
2023-02-23T22:06:39.331Z,-13.01
2023-02-23T22:12:01.099Z,-13.29
2023-02-23T22:17:23.436Z,-13.22
2023-02-23T22:22:45.398Z,-13.03
2023-02-23T22:28:09.517Z,-13.06
2023-02-23T22:33:31.617Z,-13.07
2023-02-23T22:38:57.878Z,-13.14
2023-02-23T22:44:21.998Z,-13.06
2023-02-23T22:49:44.357Z,-13.14
2023-02-23T22:55:06.456Z,-13.15
2023-02-23T23:00:29.495Z,-13.17
2023-02-23T23:05:52.468Z,-13.17
2023-02-23T23:11:19.186Z,-13.24
2023-02-23T23:16:50.760Z,-13.43
2023-02-23T23:22:15.047Z,-13.53
2023-02-23T23:27:37.835Z,-13.53
2023-02-23T23:33:01.476Z,-13.53
2023-02-23T23:38:23.593Z,-13.70
2023-02-23T23:43:48.416Z,-13.68
2023-02-23T23:49:19.750Z,-13.53
2023-02-23T23:54:43.474Z,-13.52
